sensor_id;sensor_type;location;lat;lon;timestamp;pressure;altitude;pressure_sealevel;temperature;humidity
44734;BME280;30462;52.446;-1.930;2023-02-14T00:00:18;101674.3828;;;;
44734;BME280;30462;52.446;-1.930;2023-02-14T00:01:18;101672.5273;;;;
44734;BME280;30462;52.446;-1.930;2023-02-14T00:02:18;101672.7227;;;;
44734;BME280;30462;52.446;-1.930;2023-02-14T00:03:17;101668.9258;;;;
44734;BME280;30462;52.446;-1.930;2023-02-14T00:04:18;101672.9805;;;;
44734;BME280;30462;52.446;-1.930;2023-02-14T00:05:18;101673.4023;;;;
44734;BME280;30462;52.446;-1.930;2023-02-14T00:06:18;101670.5938;;;;
44734;BME280;30462;52.446;-1.930;2023-02-14T00:07:18;101673.2539;;;;
44734;BME280;30462;52.446;-1.930;2023-02-14T00:08:18;101670.8125;;;;
44734;BME280;30462;52.446;-1.930;2023-02-14T00:09:18;101674.4609;;;;
44734;BME280;30462;52.446;-1.930;2023-02-14T00:10:18;101672.0352;;;;
44734;BME280;30462;52.446;-1.930;2023-02-14T00:11:19;101672.0078;;;;
44734;BME280;30462;52.446;-1.930;2023-02-14T00:12:18;101674.2344;;;;
44734;BME280;30462;52.446;-1.930;2023-02-14T00:13:18;101672.9766;;;;
44734;BME280;30462;52.446;-1.930;2023-02-14T00:14:18;101674.8125;;;;
44734;BME280;30462;52.446;-1.930;2023-02-14T00:15:18;101673.2773;;;;
44734;BME280;30462;52.446;-1.930;2023-02-14T00:16:17;101673.4297;;;;
44734;BME280;30462;52.446;-1.930;2023-02-14T00:17:18;101674.2383;;;;
44734;BME280;30462;52.446;-1.930;2023-02-14T00:18:18;101676.1016;;;;
44734;BME280;30462;52.446;-1.930;2023-02-14T00:19:19;101677.0508;;;;
44734;BME280;30462;52.446;-1.930;2023-02-14T00:20:18;101676.1641;;;;
44734;BME280;30462;52.446;-1.930;2023-02-14T00:21:18;101674.6797;;;;
44734;BME280;30462;52.446;-1.930;2023-02-14T00:22:17;101676.5742;;;;
44734;BME280;30462;52.446;-1.930;2023-02-14T00:23:18;101676.4219;;;;
44734;BME280;30462;52.446;-1.930;2023-02-14T00:24:18;101677.4453;;;;
44734;BME280;30462;52.446;-1.930;2023-02-14T00:25:18;101679.3594;;;;
44734;BME280;30462;52.446;-1.930;2023-02-14T00:26:18;101680.2852;;;;
44734;BME280;30462;52.446;-1.930;2023-02-14T00:27:18;101681.3828;;;;
44734;BME280;30462;52.446;-1.930;2023-02-14T00:28:18;101676.1055;;;;
44734;BME280;30462;52.446;-1.930;2023-02-14T00:29:19;101675.9961;;;;
44734;BME280;30462;52.446;-1.930;2023-02-14T00:30:18;101679.3711;;;;
44734;BME280;30462;52.446;-1.930;2023-02-14T00:31:18;101677.5313;;;;
44734;BME280;30462;52.446;-1.930;2023-02-14T00:32:18;101678.7578;;;;
44734;BME280;30462;52.446;-1.930;2023-02-14T00:33:17;101681.082;;;;
44734;BME280;30462;52.446;-1.930;2023-02-14T00:34:18;101677.8555;;;;
44734;BME280;30462;52.446;-1.930;2023-02-14T00:35:18;101677.5;;;;
44734;BME280;30462;52.446;-1.930;2023-02-14T00:36:18;101671.7188;;;;
44734;BME280;30462;52.446;-1.930;2023-02-14T00:37:18;101668.5664;;;;
44734;BME280;30462;52.446;-1.930;2023-02-14T00:38:18;101669.7188;;;;
44734;BME280;30462;52.446;-1.930;2023-02-14T00:39:18;101671.5;;;;
44734;BME280;30462;52.446;-1.930;2023-02-14T00:40:17;101669.9727;;;;
44734;BME280;30462;52.446;-1.930;2023-02-14T00:41:17;101667.1016;;;;
44734;BME280;30462;52.446;-1.930;2023-02-14T00:42:18;101670.8359;;;;
44734;BME280;30462;52.446;-1.930;2023-02-14T00:43:18;101670.0664;;;;
44734;BME280;30462;52.446;-1.930;2023-02-14T00:44:18;101665.9727;;;;
44734;BME280;30462;52.446;-1.930;2023-02-14T00:45:18;101667.2383;;;;
44734;BME280;30462;52.446;-1.930;2023-02-14T00:46:19;101661.3906;;;;
44734;BME280;30462;52.446;-1.930;2023-02-14T00:47:18;101662.0898;;;;
44734;BME280;30462;52.446;-1.930;2023-02-14T00:48:18;101661.168;;;;
44734;BME280;30462;52.446;-1.930;2023-02-14T00:49:18;101661.1328;;;;
44734;BME280;30462;52.446;-1.930;2023-02-14T00:50:18;101664.6563;;;;
44734;BME280;30462;52.446;-1.930;2023-02-14T00:51:18;101660.4844;;;;
44734;BME280;30462;52.446;-1.930;2023-02-14T00:52:18;101656.6211;;;;
44734;BME280;30462;52.446;-1.930;2023-02-14T00:53:18;101656.5469;;;;
44734;BME280;30462;52.446;-1.930;2023-02-14T00:54:18;101658.3672;;;;
44734;BME280;30462;52.446;-1.930;2023-02-14T00:55:17;101660.4688;;;;
44734;BME280;30462;52.446;-1.930;2023-02-14T00:56:18;101663.957;;;;
44734;BME280;30462;52.446;-1.930;2023-02-14T00:57:18;101664.0195;;;;
44734;BME280;30462;52.446;-1.930;2023-02-14T00:58:18;101665.4023;;;;
44734;BME280;30462;52.446;-1.930;2023-02-14T00:59:18;101666.418;;;;
44734;BME280;30462;52.446;-1.930;2023-02-14T01:00:18;101663.1836;;;;
44734;BME280;30462;52.446;-1.930;2023-02-14T01:01:18;101668.582;;;;
44734;BME280;30462;52.446;-1.930;2023-02-14T01:02:18;101663.2383;;;;
44734;BME280;30462;52.446;-1.930;2023-02-14T01:03:18;101664.8672;;;;
44734;BME280;30462;52.446;-1.930;2023-02-14T01:04:18;101664.9023;;;;
44734;BME280;30462;52.446;-1.930;2023-02-14T01:05:18;101659.8359;;;;
44734;BME280;30462;52.446;-1.930;2023-02-14T01:06:18;101657.9336;;;;
44734;BME280;30462;52.446;-1.930;2023-02-14T01:07:18;101653.6289;;;;
44734;BME280;30462;52.446;-1.930;2023-02-14T01:08:18;101650.1641;;;;
44734;BME280;30462;52.446;-1.930;2023-02-14T01:09:18;101654.4258;;;;
44734;BME280;30462;52.446;-1.930;2023-02-14T01:10:18;101652.2695;;;;
44734;BME280;30462;52.446;-1.930;2023-02-14T01:11:19;101653.5781;;;;
44734;BME280;30462;52.446;-1.930;2023-02-14T01:12:18;101655.4492;;;;
44734;BME280;30462;52.446;-1.930;2023-02-14T01:13:18;101653.8125;;;;
44734;BME280;30462;52.446;-1.930;2023-02-14T01:14:18;101649.9375;;;;
44734;BME280;30462;52.446;-1.930;2023-02-14T01:15:18;101647.7539;;;;
44734;BME280;30462;52.446;-1.930;2023-02-14T01:16:19;101645.1992;;;;
44734;BME280;30462;52.446;-1.930;2023-02-14T01:17:18;101646.457;;;;
44734;BME280;30462;52.446;-1.930;2023-02-14T01:18:18;101650.2539;;;;
44734;BME280;30462;52.446;-1.930;2023-02-14T01:19:18;101651.0742;;;;
44734;BME280;30462;52.446;-1.930;2023-02-14T01:20:18;101650.3906;;;;
44734;BME280;30462;52.446;-1.930;2023-02-14T01:21:19;101653.082;;;;
44734;BME280;30462;52.446;-1.930;2023-02-14T01:22:18;101654.043;;;;
44734;BME280;30462;52.446;-1.930;2023-02-14T01:23:18;101658.9336;;;;
44734;BME280;30462;52.446;-1.930;2023-02-14T01:24:18;101654.0469;;;;
44734;BME280;30462;52.446;-1.930;2023-02-14T01:25:18;101649.2734;;;;
44734;BME280;30462;52.446;-1.930;2023-02-14T01:26:19;101646.4258;;;;
44734;BME280;30462;52.446;-1.930;2023-02-14T01:27:18;101647.9531;;;;
44734;BME280;30462;52.446;-1.930;2023-02-14T01:28:18;101657.7188;;;;
44734;BME280;30462;52.446;-1.930;2023-02-14T01:29:18;101661.1211;;;;
44734;BME280;30462;52.446;-1.930;2023-02-14T01:30:18;101660.0781;;;;
44734;BME280;30462;52.446;-1.930;2023-02-14T01:31:19;101657.1563;;;;
44734;BME280;30462;52.446;-1.930;2023-02-14T01:32:18;101649.1836;;;;
44734;BME280;30462;52.446;-1.930;2023-02-14T01:33:17;101651.1367;;;;
44734;BME280;30462;52.446;-1.930;2023-02-14T01:34:17;101649.0195;;;;
44734;BME280;30462;52.446;-1.930;2023-02-14T01:35:18;101651.1367;;;;
44734;BME280;30462;52.446;-1.930;2023-02-14T01:36:19;101650.7773;;;;
44734;BME280;30462;52.446;-1.930;2023-02-14T01:37:18;101649.6406;;;;
44734;BME280;30462;52.446;-1.930;2023-02-14T01:38:18;101648.3867;;;;
44734;BME280;30462;52.446;-1.930;2023-02-14T01:39:18;101644.8633;;;;
44734;BME280;30462;52.446;-1.930;2023-02-14T01:40:18;101646.0664;;;;
44734;BME280;30462;52.446;-1.930;2023-02-14T01:41:18;101647.332;;;;
44734;BME280;30462;52.446;-1.930;2023-02-14T01:42:18;101655.1172;;;;
44734;BME280;30462;52.446;-1.930;2023-02-14T01:43:18;101655.7813;;;;
44734;BME280;30462;52.446;-1.930;2023-02-14T01:45:19;101641.0273;;;;
44734;BME280;30462;52.446;-1.930;2023-02-14T01:46:18;101643.0273;;;;
44734;BME280;30462;52.446;-1.930;2023-02-14T01:47:18;101644.4023;;;;
44734;BME280;30462;52.446;-1.930;2023-02-14T01:48:18;101648.1484;;;;
44734;BME280;30462;52.446;-1.930;2023-02-14T01:49:19;101646.207;;;;
44734;BME280;30462;52.446;-1.930;2023-02-14T01:50:19;101649.9375;;;;
44734;BME280;30462;52.446;-1.930;2023-02-14T01:51:18;101651.5586;;;;
44734;BME280;30462;52.446;-1.930;2023-02-14T01:52:19;101648.3438;;;;
44734;BME280;30462;52.446;-1.930;2023-02-14T01:53:20;101648.4023;;;;
44734;BME280;30462;52.446;-1.930;2023-02-14T01:54:18;101653.4648;;;;
44734;BME280;30462;52.446;-1.930;2023-02-14T01:55:18;101662.0859;;;;
44734;BME280;30462;52.446;-1.930;2023-02-14T01:56:19;101668.3984;;;;
44734;BME280;30462;52.446;-1.930;2023-02-14T01:57:18;101661.1875;;;;
44734;BME280;30462;52.446;-1.930;2023-02-14T01:58:20;101652.3516;;;;
44734;BME280;30462;52.446;-1.930;2023-02-14T01:59:20;101650.0469;;;;
44734;BME280;30462;52.446;-1.930;2023-02-14T02:00:19;101657.6602;;;;
44734;BME280;30462;52.446;-1.930;2023-02-14T02:01:18;101658.2344;;;;
44734;BME280;30462;52.446;-1.930;2023-02-14T02:02:17;101663.4102;;;;
44734;BME280;30462;52.446;-1.930;2023-02-14T02:03:18;101661.9766;;;;
44734;BME280;30462;52.446;-1.930;2023-02-14T02:04:20;101661.9961;;;;
44734;BME280;30462;52.446;-1.930;2023-02-14T02:05:18;101661.7852;;;;
44734;BME280;30462;52.446;-1.930;2023-02-14T02:06:19;101656.9688;;;;
44734;BME280;30462;52.446;-1.930;2023-02-14T02:07:19;101654.3359;;;;
44734;BME280;30462;52.446;-1.930;2023-02-14T02:08:17;101657.1094;;;;
44734;BME280;30462;52.446;-1.930;2023-02-14T02:09:19;101664.7773;;;;
44734;BME280;30462;52.446;-1.930;2023-02-14T02:10:18;101660.0898;;;;
44734;BME280;30462;52.446;-1.930;2023-02-14T02:11:18;101663.625;;;;
44734;BME280;30462;52.446;-1.930;2023-02-14T02:12:18;101663.4375;;;;
44734;BME280;30462;52.446;-1.930;2023-02-14T02:13:20;101664.6367;;;;
44734;BME280;30462;52.446;-1.930;2023-02-14T02:14:20;101657.3633;;;;
44734;BME280;30462;52.446;-1.930;2023-02-14T02:15:18;101652.5078;;;;
44734;BME280;30462;52.446;-1.930;2023-02-14T02:17:22;101653.1445;;;;
44734;BME280;30462;52.446;-1.930;2023-02-14T02:18:19;101654.5313;;;;
44734;BME280;30462;52.446;-1.930;2023-02-14T02:24:21;101644.4414;;;;
44734;BME280;30462;52.446;-1.930;2023-02-14T02:31:20;101652.6445;;;;
44734;BME280;30462;52.446;-1.930;2023-02-14T02:35:20;101654.9688;;;;
44734;BME280;30462;52.446;-1.930;2023-02-14T02:41:21;101659.4688;;;;
44734;BME280;30462;52.446;-1.930;2023-02-14T02:42:22;101653.7305;;;;
44734;BME280;30462;52.446;-1.930;2023-02-14T02:44:23;101653.4648;;;;
44734;BME280;30462;52.446;-1.930;2023-02-14T02:45:21;101657.0664;;;;
44734;BME280;30462;52.446;-1.930;2023-02-14T02:46:24;101654.2773;;;;
44734;BME280;30462;52.446;-1.930;2023-02-14T02:47:21;101656.6211;;;;
44734;BME280;30462;52.446;-1.930;2023-02-14T02:48:19;101654.7734;;;;
44734;BME280;30462;52.446;-1.930;2023-02-14T02:50:23;101659.1172;;;;
44734;BME280;30462;52.446;-1.930;2023-02-14T02:51:24;101656.5352;;;;
44734;BME280;30462;52.446;-1.930;2023-02-14T02:52:23;101658.4688;;;;
44734;BME280;30462;52.446;-1.930;2023-02-14T02:53:21;101653.6484;;;;
44734;BME280;30462;52.446;-1.930;2023-02-14T02:54:22;101657.7422;;;;
44734;BME280;30462;52.446;-1.930;2023-02-14T02:55:19;101652.5703;;;;
44734;BME280;30462;52.446;-1.930;2023-02-14T02:56:22;101647.9102;;;;
44734;BME280;30462;52.446;-1.930;2023-02-14T02:57:20;101647.2656;;;;
44734;BME280;30462;52.446;-1.930;2023-02-14T02:58:18;101640.7383;;;;
44734;BME280;30462;52.446;-1.930;2023-02-14T02:59:19;101639.7109;;;;
44734;BME280;30462;52.446;-1.930;2023-02-14T03:00:18;101639.8828;;;;
44734;BME280;30462;52.446;-1.930;2023-02-14T03:01:19;101641.5547;;;;
44734;BME280;30462;52.446;-1.930;2023-02-14T03:02:20;101641.9961;;;;
44734;BME280;30462;52.446;-1.930;2023-02-14T03:03:18;101637.9375;;;;
44734;BME280;30462;52.446;-1.930;2023-02-14T03:04:18;101636.9063;;;;
44734;BME280;30462;52.446;-1.930;2023-02-14T03:05:18;101634.75;;;;
44734;BME280;30462;52.446;-1.930;2023-02-14T03:06:18;101631.1016;;;;
44734;BME280;30462;52.446;-1.930;2023-02-14T03:07:18;101630.6992;;;;
44734;BME280;30462;52.446;-1.930;2023-02-14T03:08:18;101634.25;;;;
44734;BME280;30462;52.446;-1.930;2023-02-14T03:10:19;101622.8398;;;;
44734;BME280;30462;52.446;-1.930;2023-02-14T03:11:18;101629.4766;;;;
44734;BME280;30462;52.446;-1.930;2023-02-14T03:14:19;101627.2852;;;;
44734;BME280;30462;52.446;-1.930;2023-02-14T03:15:20;101621.6719;;;;
44734;BME280;30462;52.446;-1.930;2023-02-14T03:17:19;101622.1211;;;;
44734;BME280;30462;52.446;-1.930;2023-02-14T03:20:22;101612.0273;;;;
44734;BME280;30462;52.446;-1.930;2023-02-14T03:21:20;101607.1406;;;;
44734;BME280;30462;52.446;-1.930;2023-02-14T03:22:20;101608.3867;;;;
44734;BME280;30462;52.446;-1.930;2023-02-14T03:23:20;101612.9609;;;;
44734;BME280;30462;52.446;-1.930;2023-02-14T03:24:20;101615.6367;;;;
44734;BME280;30462;52.446;-1.930;2023-02-14T03:26:21;101616.5938;;;;
44734;BME280;30462;52.446;-1.930;2023-02-14T03:27:21;101612.0117;;;;
44734;BME280;30462;52.446;-1.930;2023-02-14T03:28:21;101610.082;;;;
44734;BME280;30462;52.446;-1.930;2023-02-14T03:29:19;101611.1953;;;;
44734;BME280;30462;52.446;-1.930;2023-02-14T03:30:20;101614.543;;;;
44734;BME280;30462;52.446;-1.930;2023-02-14T03:31:19;101613.5898;;;;
44734;BME280;30462;52.446;-1.930;2023-02-14T03:32:20;101613.5898;;;;
44734;BME280;30462;52.446;-1.930;2023-02-14T03:33:19;101615.168;;;;
44734;BME280;30462;52.446;-1.930;2023-02-14T03:34:20;101615.2188;;;;
44734;BME280;30462;52.446;-1.930;2023-02-14T03:35:19;101616.5742;;;;
44734;BME280;30462;52.446;-1.930;2023-02-14T03:36:20;101616.3125;;;;
44734;BME280;30462;52.446;-1.930;2023-02-14T03:37:20;101615.168;;;;
44734;BME280;30462;52.446;-1.930;2023-02-14T03:38:19;101616.3789;;;;
44734;BME280;30462;52.446;-1.930;2023-02-14T03:39:19;101613.8828;;;;
44734;BME280;30462;52.446;-1.930;2023-02-14T03:40:19;101614.1914;;;;
44734;BME280;30462;52.446;-1.930;2023-02-14T03:41:19;101615.8359;;;;
44734;BME280;30462;52.446;-1.930;2023-02-14T03:42:19;101615.6953;;;;
44734;BME280;30462;52.446;-1.930;2023-02-14T03:43:19;101611.0625;;;;
44734;BME280;30462;52.446;-1.930;2023-02-14T03:44:20;101614.9766;;;;
44734;BME280;30462;52.446;-1.930;2023-02-14T03:45:21;101617.5586;;;;
44734;BME280;30462;52.446;-1.930;2023-02-14T03:46:21;101615.0547;;;;
44734;BME280;30462;52.446;-1.930;2023-02-14T03:47:18;101613.4219;;;;
44734;BME280;30462;52.446;-1.930;2023-02-14T03:48:18;101619.1055;;;;
44734;BME280;30462;52.446;-1.930;2023-02-14T03:49:18;101619.0703;;;;
44734;BME280;30462;52.446;-1.930;2023-02-14T03:50:18;101620.375;;;;
44734;BME280;30462;52.446;-1.930;2023-02-14T03:51:18;101624.1719;;;;
44734;BME280;30462;52.446;-1.930;2023-02-14T03:52:18;101624.4609;;;;
44734;BME280;30462;52.446;-1.930;2023-02-14T03:53:19;101623.125;;;;
44734;BME280;30462;52.446;-1.930;2023-02-14T03:54:18;101624.1055;;;;
44734;BME280;30462;52.446;-1.930;2023-02-14T03:55:19;101622.5;;;;
44734;BME280;30462;52.446;-1.930;2023-02-14T03:56:20;101624.0391;;;;
44734;BME280;30462;52.446;-1.930;2023-02-14T03:57:18;101622.1289;;;;
44734;BME280;30462;52.446;-1.930;2023-02-14T03:58:21;101626.4336;;;;
44734;BME280;30462;52.446;-1.930;2023-02-14T03:59:19;101624.2656;;;;
44734;BME280;30462;52.446;-1.930;2023-02-14T04:00:18;101621.4648;;;;
44734;BME280;30462;52.446;-1.930;2023-02-14T04:01:20;101624.293;;;;
44734;BME280;30462;52.446;-1.930;2023-02-14T04:02:18;101625.5273;;;;
44734;BME280;30462;52.446;-1.930;2023-02-14T04:03:18;101629.3594;;;;
44734;BME280;30462;52.446;-1.930;2023-02-14T04:04:18;101626.5898;;;;
44734;BME280;30462;52.446;-1.930;2023-02-14T04:05:18;101624.0859;;;;
44734;BME280;30462;52.446;-1.930;2023-02-14T04:06:18;101631.3203;;;;
44734;BME280;30462;52.446;-1.930;2023-02-14T04:07:20;101625.3789;;;;
44734;BME280;30462;52.446;-1.930;2023-02-14T04:08:20;101626.3359;;;;
44734;BME280;30462;52.446;-1.930;2023-02-14T04:09:18;101625.1289;;;;
44734;BME280;30462;52.446;-1.930;2023-02-14T04:10:18;101622.4297;;;;
44734;BME280;30462;52.446;-1.930;2023-02-14T04:11:18;101623.6016;;;;
44734;BME280;30462;52.446;-1.930;2023-02-14T04:12:18;101623.1055;;;;
44734;BME280;30462;52.446;-1.930;2023-02-14T04:13:18;101623.3359;;;;
44734;BME280;30462;52.446;-1.930;2023-02-14T04:14:18;101622.293;;;;
44734;BME280;30462;52.446;-1.930;2023-02-14T04:15:18;101616.4297;;;;
44734;BME280;30462;52.446;-1.930;2023-02-14T04:16:18;101621.5078;;;;
44734;BME280;30462;52.446;-1.930;2023-02-14T04:17:18;101618.5742;;;;
44734;BME280;30462;52.446;-1.930;2023-02-14T04:18:18;101619.6172;;;;
44734;BME280;30462;52.446;-1.930;2023-02-14T04:19:18;101613.1445;;;;
44734;BME280;30462;52.446;-1.930;2023-02-14T04:20:18;101610.5781;;;;
44734;BME280;30462;52.446;-1.930;2023-02-14T04:21:18;101610.1016;;;;
44734;BME280;30462;52.446;-1.930;2023-02-14T04:22:18;101607.8359;;;;
44734;BME280;30462;52.446;-1.930;2023-02-14T04:23:18;101607.9219;;;;
44734;BME280;30462;52.446;-1.930;2023-02-14T04:24:18;101605.375;;;;
44734;BME280;30462;52.446;-1.930;2023-02-14T04:25:18;101608.7734;;;;
44734;BME280;30462;52.446;-1.930;2023-02-14T04:26:18;101610.3047;;;;
44734;BME280;30462;52.446;-1.930;2023-02-14T04:27:18;101607.5977;;;;
44734;BME280;30462;52.446;-1.930;2023-02-14T04:28:18;101609.8008;;;;
44734;BME280;30462;52.446;-1.930;2023-02-14T04:29:18;101607.5195;;;;
44734;BME280;30462;52.446;-1.930;2023-02-14T04:30:18;101614.8086;;;;
44734;BME280;30462;52.446;-1.930;2023-02-14T04:31:18;101614.6563;;;;
44734;BME280;30462;52.446;-1.930;2023-02-14T04:32:18;101614.2578;;;;
44734;BME280;30462;52.446;-1.930;2023-02-14T04:33:18;101610.082;;;;
44734;BME280;30462;52.446;-1.930;2023-02-14T04:34:18;101610.2656;;;;
44734;BME280;30462;52.446;-1.930;2023-02-14T04:35:18;101608.1758;;;;
44734;BME280;30462;52.446;-1.930;2023-02-14T04:36:18;101607.9766;;;;
44734;BME280;30462;52.446;-1.930;2023-02-14T04:37:18;101607.375;;;;
44734;BME280;30462;52.446;-1.930;2023-02-14T04:38:18;101604.2695;;;;
44734;BME280;30462;52.446;-1.930;2023-02-14T04:39:18;101608.1563;;;;
44734;BME280;30462;52.446;-1.930;2023-02-14T04:40:18;101607.5664;;;;
44734;BME280;30462;52.446;-1.930;2023-02-14T04:41:18;101604.832;;;;
44734;BME280;30462;52.446;-1.930;2023-02-14T04:42:18;101604.1953;;;;
44734;BME280;30462;52.446;-1.930;2023-02-14T04:43:18;101604.1758;;;;
44734;BME280;30462;52.446;-1.930;2023-02-14T04:44:18;101606.6563;;;;
44734;BME280;30462;52.446;-1.930;2023-02-14T04:45:18;101602.9023;;;;
44734;BME280;30462;52.446;-1.930;2023-02-14T04:46:18;101606.1445;;;;
44734;BME280;30462;52.446;-1.930;2023-02-14T04:47:18;101610.8281;;;;
44734;BME280;30462;52.446;-1.930;2023-02-14T04:48:17;101616.9023;;;;
44734;BME280;30462;52.446;-1.930;2023-02-14T04:49:18;101616.7891;;;;
44734;BME280;30462;52.446;-1.930;2023-02-14T04:50:18;101616.2617;;;;
44734;BME280;30462;52.446;-1.930;2023-02-14T04:51:18;101603.8516;;;;
44734;BME280;30462;52.446;-1.930;2023-02-14T04:52:18;101604.0391;;;;
44734;BME280;30462;52.446;-1.930;2023-02-14T04:53:18;101606.4453;;;;
44734;BME280;30462;52.446;-1.930;2023-02-14T04:54:18;101613.1914;;;;
44734;BME280;30462;52.446;-1.930;2023-02-14T04:55:18;101617.3867;;;;
44734;BME280;30462;52.446;-1.930;2023-02-14T04:56:18;101612.8633;;;;
44734;BME280;30462;52.446;-1.930;2023-02-14T04:57:18;101616.2461;;;;
44734;BME280;30462;52.446;-1.930;2023-02-14T04:58:18;101614.4297;;;;
44734;BME280;30462;52.446;-1.930;2023-02-14T04:59:18;101613.4844;;;;
44734;BME280;30462;52.446;-1.930;2023-02-14T05:00:18;101608.2305;;;;
44734;BME280;30462;52.446;-1.930;2023-02-14T05:01:18;101604.8477;;;;
44734;BME280;30462;52.446;-1.930;2023-02-14T05:02:18;101602.6836;;;;
44734;BME280;30462;52.446;-1.930;2023-02-14T05:03:18;101608.5313;;;;
44734;BME280;30462;52.446;-1.930;2023-02-14T05:04:18;101609.5859;;;;
44734;BME280;30462;52.446;-1.930;2023-02-14T05:05:18;101609.4648;;;;
44734;BME280;30462;52.446;-1.930;2023-02-14T05:06:18;101609.1523;;;;
44734;BME280;30462;52.446;-1.930;2023-02-14T05:07:18;101608.4727;;;;
44734;BME280;30462;52.446;-1.930;2023-02-14T05:08:17;101615.082;;;;
44734;BME280;30462;52.446;-1.930;2023-02-14T05:09:18;101618.3711;;;;
44734;BME280;30462;52.446;-1.930;2023-02-14T05:10:18;101615.9297;;;;
44734;BME280;30462;52.446;-1.930;2023-02-14T05:11:18;101619.9766;;;;
44734;BME280;30462;52.446;-1.930;2023-02-14T05:12:18;101617.2344;;;;
44734;BME280;30462;52.446;-1.930;2023-02-14T05:13:18;101613.6445;;;;
44734;BME280;30462;52.446;-1.930;2023-02-14T05:14:18;101615.1836;;;;
44734;BME280;30462;52.446;-1.930;2023-02-14T05:15:18;101611.7617;;;;
44734;BME280;30462;52.446;-1.930;2023-02-14T05:16:17;101611.3867;;;;
44734;BME280;30462;52.446;-1.930;2023-02-14T05:17:17;101612.3242;;;;
44734;BME280;30462;52.446;-1.930;2023-02-14T05:18:18;101611.5586;;;;
44734;BME280;30462;52.446;-1.930;2023-02-14T05:19:18;101613.0508;;;;
44734;BME280;30462;52.446;-1.930;2023-02-14T05:20:18;101614.3242;;;;
44734;BME280;30462;52.446;-1.930;2023-02-14T05:21:18;101615.8164;;;;
44734;BME280;30462;52.446;-1.930;2023-02-14T05:22:17;101611.3555;;;;
44734;BME280;30462;52.446;-1.930;2023-02-14T05:23:18;101613.7109;;;;
44734;BME280;30462;52.446;-1.930;2023-02-14T05:24:17;101613.4805;;;;
44734;BME280;30462;52.446;-1.930;2023-02-14T05:25:17;101614.3359;;;;
44734;BME280;30462;52.446;-1.930;2023-02-14T05:26:18;101611.4609;;;;
44734;BME280;30462;52.446;-1.930;2023-02-14T05:27:18;101611.3438;;;;
44734;BME280;30462;52.446;-1.930;2023-02-14T05:28:18;101611.1133;;;;
44734;BME280;30462;52.446;-1.930;2023-02-14T05:29:17;101609.1914;;;;
44734;BME280;30462;52.446;-1.930;2023-02-14T05:30:18;101609.8828;;;;
44734;BME280;30462;52.446;-1.930;2023-02-14T05:31:18;101601.5234;;;;
44734;BME280;30462;52.446;-1.930;2023-02-14T05:32:18;101606.3008;;;;
44734;BME280;30462;52.446;-1.930;2023-02-14T05:33:18;101602.1875;;;;
44734;BME280;30462;52.446;-1.930;2023-02-14T05:34:18;101605.7305;;;;
44734;BME280;30462;52.446;-1.930;2023-02-14T05:35:18;101604.5938;;;;
44734;BME280;30462;52.446;-1.930;2023-02-14T05:36:18;101606.4023;;;;
44734;BME280;30462;52.446;-1.930;2023-02-14T05:37:18;101605.5742;;;;
44734;BME280;30462;52.446;-1.930;2023-02-14T05:38:18;101605.125;;;;
44734;BME280;30462;52.446;-1.930;2023-02-14T05:39:18;101606.9492;;;;
44734;BME280;30462;52.446;-1.930;2023-02-14T05:40:18;101607.7969;;;;
44734;BME280;30462;52.446;-1.930;2023-02-14T05:41:18;101612.4141;;;;
44734;BME280;30462;52.446;-1.930;2023-02-14T05:42:18;101607.4453;;;;
44734;BME280;30462;52.446;-1.930;2023-02-14T05:43:17;101608.7578;;;;
44734;BME280;30462;52.446;-1.930;2023-02-14T05:44:18;101613.7617;;;;
44734;BME280;30462;52.446;-1.930;2023-02-14T05:45:18;101616.5391;;;;
44734;BME280;30462;52.446;-1.930;2023-02-14T05:46:18;101617.9961;;;;
44734;BME280;30462;52.446;-1.930;2023-02-14T05:47:18;101616.6602;;;;
44734;BME280;30462;52.446;-1.930;2023-02-14T05:48:17;101619.1523;;;;
44734;BME280;30462;52.446;-1.930;2023-02-14T05:49:17;101613.4883;;;;
44734;BME280;30462;52.446;-1.930;2023-02-14T05:50:18;101613.082;;;;
44734;BME280;30462;52.446;-1.930;2023-02-14T05:51:18;101612.3867;;;;
44734;BME280;30462;52.446;-1.930;2023-02-14T05:52:18;101609.8711;;;;
44734;BME280;30462;52.446;-1.930;2023-02-14T05:53:18;101610.2578;;;;
44734;BME280;30462;52.446;-1.930;2023-02-14T05:54:18;101612.3047;;;;
44734;BME280;30462;52.446;-1.930;2023-02-14T05:55:18;101612.7148;;;;
44734;BME280;30462;52.446;-1.930;2023-02-14T05:56:18;101608.6797;;;;
44734;BME280;30462;52.446;-1.930;2023-02-14T05:57:18;101609.8164;;;;
44734;BME280;30462;52.446;-1.930;2023-02-14T05:58:18;101608.4141;;;;
44734;BME280;30462;52.446;-1.930;2023-02-14T05:59:18;101613.9688;;;;
44734;BME280;30462;52.446;-1.930;2023-02-14T06:00:19;101607.6172;;;;
44734;BME280;30462;52.446;-1.930;2023-02-14T06:01:17;101608.9219;;;;
44734;BME280;30462;52.446;-1.930;2023-02-14T06:02:18;101610.2148;;;;
44734;BME280;30462;52.446;-1.930;2023-02-14T06:03:18;101613.3711;;;;
44734;BME280;30462;52.446;-1.930;2023-02-14T06:04:18;101609.2969;;;;
44734;BME280;30462;52.446;-1.930;2023-02-14T06:05:18;101614.5313;;;;
44734;BME280;30462;52.446;-1.930;2023-02-14T06:06:18;101617.1289;;;;
44734;BME280;30462;52.446;-1.930;2023-02-14T06:07:18;101613.4922;;;;
44734;BME280;30462;52.446;-1.930;2023-02-14T06:08:18;101609.4844;;;;
44734;BME280;30462;52.446;-1.930;2023-02-14T06:09:18;101614.6094;;;;
44734;BME280;30462;52.446;-1.930;2023-02-14T06:10:18;101615.4844;;;;
44734;BME280;30462;52.446;-1.930;2023-02-14T06:11:18;101611.875;;;;
44734;BME280;30462;52.446;-1.930;2023-02-14T06:12:18;101613.6211;;;;
44734;BME280;30462;52.446;-1.930;2023-02-14T06:13:18;101606.8125;;;;
44734;BME280;30462;52.446;-1.930;2023-02-14T06:14:18;101605.4063;;;;
44734;BME280;30462;52.446;-1.930;2023-02-14T06:15:18;101610.2734;;;;